Madison Maersk — OWJG2 — position and weather

sailwx.info

Track history (hours):
 
Tides and Currents Weather Stations Pressure Air Temp Water Temp Dewpoint Dewpoint Depression Visibility Wind Speed Wind Dir Waves Ship Positions

Madison Maersk

Last reported at 2018-Aug-14 06:30 UTC. Time now 2018-Aug-14 06:58 UTC.
Position N 36°27' W 008°49'.

Length 399 m; draft 14.3 m.

Type: Ship (hazmat cat A). MMSI: 219018864.

Date/timePositionNaut miles runAvg speedWind from/ knotsBaromVisibWave heightAir tempDewpointWater temp
2018-Aug-14 06:30N 36°27' W 008°49'510.4
2018-Aug-14 05:59N 36°28' W 008°55'510.3
2018-Aug-14 05:30N 36°29' W 009°01'510.4
2018-Aug-14 05:00N 36°30' W 009°07'610.3
2018-Aug-14 04:24N 36°32' W 009°15'510.2
2018-Aug-14 03:56N 36°34' W 009°20'510.4
2018-Aug-14 03:29N 36°38' W 009°23'510.3
2018-Aug-14 02:58N 36°42' W 009°27'510.6
2018-Aug-14 02:30N 36°46' W 009°31'611.1
2018-Aug-14 02:00N 36°51' W 009°34'611.1
2018-Aug-14 01:29N 36°57' W 009°36'510.9
2018-Aug-14 01:00N 37°02' W 009°37'810.9
2018-Aug-14 00:16N 37°09' W 009°40'411.1
2018-Aug-13 23:57N 37°13' W 009°41'911.0
2018-Aug-13 23:05N 37°22' W 009°43'311.4
2018-Aug-13 22:49N 37°25' W 009°44'811.0
2018-Aug-13 22:03N 37°33' W 009°46'111.0
2018-Aug-13 22:00N 37°34' W 009°46'611.0
2018-Aug-13 21:29N 37°40' W 009°48'510.9
2018-Aug-13 21:00N 37°45' W 009°50'510.8
2018-Aug-13 20:30N 37°50' W 009°51'510.7
2018-Aug-13 20:00N 37°55' W 009°53'510.9
2018-Aug-13 19:30N 38°00' W 009°54'510.9
2018-Aug-13 19:00N 38°06' W 009°55'510.9
2018-Aug-13 18:30N 38°11' W 009°57'713.7
2018-Aug-13 18:01N 38°18' W 009°59'815.6
2018-Aug-13 17:30N 38°25' W 010°01'815.6
2018-Aug-13 17:00N 38°33' W 010°03'815.8
2018-Aug-13 16:31N 38°41' W 010°05'815.3
2018-Aug-13 15:58N 38°49' W 010°07'715.2
2018-Aug-13 15:31N 38°56' W 010°07'714.8
2018-Aug-13 15:00N 39°03' W 010°07'714.2
2018-Aug-13 14:30N 39°10' W 010°07'714.3
2018-Aug-13 14:01N 39°17' W 010°07'714.9
2018-Aug-13 13:30N 39°25' W 010°07'1414.8
2018-Aug-13 12:34N 39°39' W 010°07'114.6
2018-Aug-13 12:30N 39°40' W 010°07'56214.6
2018-Aug-11 22:05N 48°33' W 006°02'616.2
2018-Aug-11 21:43N 48°38' W 005°58'516.1
2018-Aug-11 21:26N 48°42' W 005°55'716.0
2018-Aug-11 21:00N 48°48' W 005°49'1315.2
2018-Aug-11 20:06N 48°58' W 005°35'214.7
2018-Aug-11 19:57N 48°59' W 005°32'614.6
2018-Aug-11 19:30N 49°03' W 005°24'714.4
2018-Aug-11 19:00N 49°07' W 005°15'913.6
2018-Aug-11 18:22N 49°12' W 005°04'712.6
2018-Aug-11 17:47N 49°16' W 004°54'411.8
2018-Aug-11 17:29N 49°17' W 004°49'511.4
2018-Aug-11 17:00N 49°20' W 004°42'611.1
2018-Aug-11 16:26N 49°23' W 004°34'511.3
2018-Aug-11 16:00N 49°25' W 004°27'1011.7
2018-Aug-11 15:11N 49°30' W 004°14'212.2
2018-Aug-11 15:00N 49°31' W 004°11'1413.5
2018-Aug-11 13:57N 49°39' W 003°53'815.4
2018-Aug-11 13:26N 49°42' W 003°42'716.3
2018-Aug-11 13:00N 49°45' W 003°32'816.7
2018-Aug-11 12:30N 49°49' W 003°21'816.7
2018-Aug-11 12:01N 49°53' W 003°10'816.2
2018-Aug-11 11:31N 49°57' W 002°58'815.8
2018-Aug-11 11:00N 49°60' W 002°47'815.5
2018-Aug-11 10:31N 50°01' W 002°35'714.8
2018-Aug-11 10:00N 50°03' W 002°24'4711.8
2018-Aug-11 05:59N 49°53' W 001°12'612.5
2018-Aug-11 05:31N 49°50' W 001°04'713.9
2018-Aug-11 05:01N 49°46' W 000°55'815.2
2018-Aug-11 04:31N 49°42' W 000°45'815.9
2018-Aug-11 04:01N 49°39' W 000°34'816.1
2018-Aug-11 03:31N 49°35' W 000°23'815.8
2018-Aug-11 03:00N 49°33' W 000°11'3 6.9
2018-Aug-11 02:30N 49°32' W 000°06'4 8.5
2018-Aug-11 02:00N 49°30' W 000°00'611.7
2018-Aug-11 01:30N 49°28' E 000°08'1 1.5
2018-Aug-11 01:00N 49°28' E 000°09'0 0.0
2018-Aug-11 00:30N 49°28' E 000°09'0 0.0
2018-Aug-11 00:00N 49°28' E 000°09'0 0.0
2018-Aug-10 23:30N 49°28' E 000°09'0 0.0
2018-Aug-10 23:00N 49°28' E 000°09'0 0.0
2018-Aug-10 22:30N 49°28' E 000°09'0 0.0
2018-Aug-10 22:00N 49°28' E 000°09'0 0.0
2018-Aug-10 21:30N 49°28' E 000°09'0 0.0
2018-Aug-10 21:00N 49°28' E 000°09'0 0.0
2018-Aug-10 20:30N 49°28' E 000°09'0 0.0
2018-Aug-10 20:00N 49°28' E 000°09'0 0.0
2018-Aug-10 19:30N 49°28' E 000°09'0 0.0
2018-Aug-10 19:00N 49°28' E 000°09'0 0.0
2018-Aug-10 18:30N 49°28' E 000°09'0 0.0
2018-Aug-10 18:00N 49°28' E 000°09'0 0.0
2018-Aug-10 17:30N 49°28' E 000°09'0 0.0
2018-Aug-10 17:00N 49°28' E 000°09'0 0.0
2018-Aug-10 16:30N 49°28' E 000°09'0 0.0
2018-Aug-10 16:00N 49°28' E 000°09'0 0.0
2018-Aug-10 15:30N 49°28' E 000°09'0 0.0
2018-Aug-10 15:00N 49°28' E 000°09'0 0.0
2018-Aug-10 14:30N 49°28' E 000°09'0 0.0
2018-Aug-10 14:00N 49°28' E 000°09'0 0.0
2018-Aug-10 13:30N 49°28' E 000°09'0 0.0
2018-Aug-10 13:00N 49°28' E 000°09'0 0.0
2018-Aug-10 12:31N 49°28' E 000°09'0 0.0
2018-Aug-10 12:00N 49°28' E 000°09'0 0.0
2018-Aug-10 11:30N 49°28' E 000°09'0 0.0
2018-Aug-10 11:00N 49°28' E 000°09'0 0.0
2018-Aug-10 10:30N 49°28' E 000°09'0 0.0
2018-Aug-10 10:00N 49°28' E 000°09'0 0.0
2018-Aug-10 09:30N 49°28' E 000°09'0 0.0
2018-Aug-10 09:00N 49°28' E 000°09'0 0.0
2018-Aug-10 08:30N 49°28' E 000°09'0 0.0
2018-Aug-10 08:00N 49°28' E 000°09'0 0.0
2018-Aug-10 07:30N 49°28' E 000°09'0 0.0
2018-Aug-10 07:00N 49°28' E 000°09'0 0.0
2018-Aug-10 06:30N 49°28' E 000°09'0 0.0
2018-Aug-10 06:00N 49°28' E 000°09'0 0.0
2018-Aug-10 05:30N 49°28' E 000°09'0 0.0
2018-Aug-10 05:00N 49°28' E 000°09'0 0.0
2018-Aug-10 04:30N 49°28' E 000°09'0 0.0
2018-Aug-10 04:00N 49°28' E 000°09'0 0.0
2018-Aug-10 03:30N 49°28' E 000°09'0 0.0
2018-Aug-10 03:00N 49°28' E 000°09'0 0.0
2018-Aug-10 02:30N 49°28' E 000°09'0 0.0
2018-Aug-10 02:00N 49°28' E 000°09'0 0.0
2018-Aug-10 01:30N 49°28' E 000°09'0 0.0
2018-Aug-10 01:00N 49°28' E 000°09'0 0.0
2018-Aug-10 00:30N 49°28' E 000°09'0 0.0
2018-Aug-10 00:00N 49°28' E 000°09'0 0.0
2018-Aug-09 23:30N 49°28' E 000°09'0 0.0
2018-Aug-09 23:00N 49°28' E 000°09'0 0.0
2018-Aug-09 22:30N 49°28' E 000°09'0 0.0
2018-Aug-09 22:00N 49°28' E 000°09'0 0.0
2018-Aug-09 21:30N 49°28' E 000°09'0 0.0
2018-Aug-09 21:00N 49°28' E 000°09'0 0.0
2018-Aug-09 20:30N 49°28' E 000°09'0 0.0
2018-Aug-09 20:00N 49°28' E 000°09'0 0.1
2018-Aug-09 19:30N 49°28' E 000°09'1 1.1
2018-Aug-09 19:00N 49°28' E 000°08'4 8.1
2018-Aug-09 18:30N 49°30' E 000°03'815.5
2018-Aug-09 18:01N 49°32' W 000°09'4 8.4
2018-Aug-09 17:30N 49°33' W 000°15'5 9.6
2018-Aug-09 17:01N 49°35' W 000°21'815.4
2018-Aug-09 16:30N 49°42' W 000°27'1020.2
2018-Aug-09 16:01N 49°52' W 000°28'1020.0
2018-Aug-09 15:30N 50°02' W 000°29'1019.9
2018-Aug-09 15:01N 50°12' W 000°28'1418.1
2018-Aug-09 14:15N 50°25' W 000°21'620.7
2018-Aug-09 13:59N 50°26' W 000°12'1120.5
2018-Aug-09 13:28N 50°29' E 000°04'920.5
2018-Aug-09 13:01N 50°32' E 000°18'1020.3
2018-Aug-09 12:31N 50°35' E 000°33'1020.2
2018-Aug-09 12:01N 50°41' E 000°46'1019.9
2018-Aug-09 11:30N 50°48' E 000°58'1019.1
2018-Aug-09 11:00N 50°54' E 001°08'918.2
2018-Aug-09 10:30N 50°60' E 001°20'917.5
2018-Aug-09 10:00N 51°06' E 001°30'816.7
2018-Aug-09 09:31N 51°12' E 001°38'918.5
2018-Aug-09 09:01N 51°21' E 001°43'1019.1
2018-Aug-09 08:30N 51°31' E 001°45'1021.0
2018-Aug-09 08:01N 51°41' E 001°45'918.6
2018-Aug-09 07:30N 51°50' E 001°40'5 9.9
2018-Aug-09 07:00N 51°53' E 001°34'5 9.2
2018-Aug-09 06:30N 51°56' E 001°29'510.2
2018-Aug-09 06:00N 51°56' E 001°21'2 2.9
2018-Aug-09 05:28N 51°57' E 001°19'0 0.1
2018-Aug-09 05:00N 51°57' E 001°19'0 0.0
2018-Aug-09 04:30N 51°57' E 001°19'0 0.0
2018-Aug-09 04:00N 51°57' E 001°19'0 0.0
2018-Aug-09 03:29N 51°57' E 001°19'0 0.0
2018-Aug-09 02:59N 51°57' E 001°19'0 0.0
2018-Aug-09 02:29N 51°57' E 001°19'0 0.0
2018-Aug-09 01:59N 51°57' E 001°19'0 0.0
2018-Aug-09 01:31N 51°57' E 001°19'0 0.0
2018-Aug-09 01:01N 51°57' E 001°19'0 0.0
2018-Aug-09 00:31N 51°57' E 001°19'0 0.0
2018-Aug-09 00:01N 51°57' E 001°19'0 0.0
2018-Aug-08 23:31N 51°57' E 001°19'0 0.0
2018-Aug-08 23:01N 51°57' E 001°19'0 0.0
2018-Aug-08 22:31N 51°57' E 001°19'0 0.0
2018-Aug-08 22:01N 51°57' E 001°19'0 0.0
2018-Aug-08 21:31N 51°57' E 001°19'0 0.0
2018-Aug-08 21:01N 51°57' E 001°19'0 0.0
2018-Aug-08 20:31N 51°57' E 001°19'0 0.0
2018-Aug-08 20:01N 51°57' E 001°19'0 0.0
2018-Aug-08 19:31N 51°57' E 001°19'0 0.0
2018-Aug-08 19:01N 51°57' E 001°19'0 0.0
2018-Aug-08 18:31N 51°57' E 001°19'0 0.0
2018-Aug-08 18:01N 51°57' E 001°19'0 0.0
2018-Aug-08 17:30N 51°57' E 001°19'0 0.0
2018-Aug-08 17:00N 51°57' E 001°19'0 0.0
2018-Aug-08 16:30N 51°57' E 001°19'0 0.0
2018-Aug-08 16:00N 51°57' E 001°19'0 0.0
2018-Aug-08 15:30N 51°57' E 001°19'0 0.0
2018-Aug-08 15:00N 51°57' E 001°19'0 0.0
2018-Aug-08 14:30N 51°57' E 001°19'0 0.0
2018-Aug-08 14:00N 51°57' E 001°19'0 0.0
2018-Aug-08 13:30N 51°57' E 001°19'0 0.0
2018-Aug-08 13:00N 51°57' E 001°19'0 0.0
2018-Aug-08 12:30N 51°57' E 001°19'0 0.0
2018-Aug-08 12:00N 51°57' E 001°19'0 0.0
2018-Aug-08 11:30N 51°57' E 001°19'0 0.0
2018-Aug-08 11:00N 51°57' E 001°19'0 0.0
2018-Aug-08 10:30N 51°57' E 001°19'0 0.0
2018-Aug-08 10:00N 51°57' E 001°19'0 0.0
2018-Aug-08 09:30N 51°57' E 001°19'0 0.0
2018-Aug-08 09:00N 51°57' E 001°19'0 0.0
2018-Aug-08 08:30N 51°57' E 001°19'0 0.0
2018-Aug-08 08:00N 51°57' E 001°19'0 0.0
2018-Aug-08 07:30N 51°57' E 001°19'0 0.0
2018-Aug-08 07:00N 51°57' E 001°19'0 0.0
2018-Aug-08 06:30N 51°57' E 001°19'0 0.0
2018-Aug-08 06:00N 51°57' E 001°19'0 0.0
2018-Aug-08 05:30N 51°57' E 001°19'0 0.0
2018-Aug-08 05:01N 51°57' E 001°19'0 0.0
2018-Aug-08 04:30N 51°57' E 001°19'0 0.0
2018-Aug-08 04:00N 51°57' E 001°19'0 0.0
2018-Aug-08 03:30N 51°57' E 001°19'0 0.0
2018-Aug-08 03:00N 51°57' E 001°19'0 0.0
2018-Aug-08 02:30N 51°57' E 001°19'0 0.0
2018-Aug-08 02:00N 51°57' E 001°19'0 0.0
2018-Aug-08 01:30N 51°57' E 001°19'0 0.0
2018-Aug-08 01:00N 51°57' E 001°19'0 0.0
2018-Aug-08 00:30N 51°57' E 001°19'0 0.1
2018-Aug-08 00:00N 51°57' E 001°19'0 0.3
2018-Aug-07 23:30N 51°57' E 001°19'2 4.7
2018-Aug-07 23:01N 51°56' E 001°22'612.9
2018-Aug-07 22:30N 51°56' E 001°33'510.9
2018-Aug-07 22:00N 51°51' E 001°37'5 9.8
2018-Aug-07 21:30N 51°51' E 001°45'816.3
2018-Aug-07 21:00N 51°43' E 001°49'1019.7
2018-Aug-07 20:30N 51°33' E 001°51'917.2
2018-Aug-07 20:00N 51°26' E 001°59'917.3
2018-Aug-07 19:30N 51°22' E 002°11'816.4
2018-Aug-07 19:00N 51°22' E 002°24'918.1
2018-Aug-07 18:30N 51°23' E 002°38'714.3
2018-Aug-07 18:01N 51°25' E 002°49'816.5
2018-Aug-07 17:31N 51°25' E 003°02'815.6
2018-Aug-07 17:01N 51°25' E 003°15'815.2
2018-Aug-07 16:30N 51°25' E 003°27'510.5
2018-Aug-07 16:00N 51°26' E 003°35'5 9.6
2018-Aug-07 15:30N 51°24' E 003°43'613.0
2018-Aug-07 15:01N 51°21' E 003°51'713.4
2018-Aug-07 14:30N 51°26' E 003°58'612.0
2018-Aug-07 14:00N 51°22' E 004°06'510.8
2018-Aug-07 13:30N 51°21' E 004°14'4 7.3
2018-Aug-07 13:01N 51°18' E 004°16'0 0.8
2018-Aug-07 12:28N 51°17' E 004°15'0 0.0
2018-Aug-07 11:52N 51°17' E 004°15'0 0.0
2018-Aug-07 11:28N 51°17' E 004°15'0 0.0
2018-Aug-07 10:58N 51°17' E 004°15'0 0.0
2018-Aug-07 10:31N 51°17' E 004°15'0 0.0
2018-Aug-07 10:01N 51°17' E 004°15'0 0.0
2018-Aug-07 09:31N 51°17' E 004°15'0 0.0
2018-Aug-07 09:01N 51°17' E 004°15'0 0.0
2018-Aug-07 08:31N 51°17' E 004°15'0 0.0
2018-Aug-07 08:00N 51°17' E 004°15'0 0.0
2018-Aug-07 07:31N 51°17' E 004°15'0 0.0
2018-Aug-07 07:01N 51°17' E 004°15'0 0.0
2018-Aug-07 06:31N 51°17' E 004°15'0 0.0
2018-Aug-07 06:01N 51°17' E 004°15'0 0.0
2018-Aug-07 05:30N 51°17' E 004°15'0 0.0
2018-Aug-07 05:01N 51°17' E 004°15'0 0.0
2018-Aug-07 04:31N 51°17' E 004°15'0 0.0
2018-Aug-07 04:00N 51°17' E 004°15'0 0.0
2018-Aug-07 03:31N 51°17' E 004°15'0 0.0
2018-Aug-07 03:01N 51°17' E 004°15'0 0.0
2018-Aug-07 02:31N 51°17' E 004°15'0 0.0
2018-Aug-07 02:01N 51°17' E 004°15'0 0.0
2018-Aug-07 01:30N 51°17' E 004°15'0 0.0
2018-Aug-07 01:00N 51°17' E 004°15'0 0.0
2018-Aug-07 00:31N 51°17' E 004°15'0 0.0
2018-Aug-07 00:00N 51°17' E 004°15'0 0.0
2018-Aug-06 23:30N 51°17' E 004°15'0 0.0
2018-Aug-06 23:01N 51°17' E 004°15'0 0.0
2018-Aug-06 22:31N 51°17' E 004°15'0 0.0
2018-Aug-06 22:00N 51°17' E 004°15'0 0.0
2018-Aug-06 21:31N 51°17' E 004°15'0 0.0
2018-Aug-06 21:01N 51°17' E 004°15'0 0.0
2018-Aug-06 20:31N 51°17' E 004°15'0 0.0
2018-Aug-06 20:01N 51°17' E 004°15'0 0.0
2018-Aug-06 19:31N 51°17' E 004°15'0 0.0
2018-Aug-06 19:01N 51°17' E 004°15'0 0.0
2018-Aug-06 18:31N 51°17' E 004°15'0 0.0
2018-Aug-06 18:01N 51°17' E 004°15'0 0.0
2018-Aug-06 17:31N 51°17' E 004°15'0 0.0
2018-Aug-06 17:01N 51°17' E 004°15'0 0.0
2018-Aug-06 16:30N 51°17' E 004°15'0 0.0
2018-Aug-06 16:00N 51°17' E 004°15'0 0.0
2018-Aug-06 15:30N 51°17' E 004°15'0 0.0
2018-Aug-06 15:00N 51°17' E 004°15'0 0.0
2018-Aug-06 14:30N 51°17' E 004°15'0 0.0
2018-Aug-06 14:00N 51°17' E 004°15'0 0.0
2018-Aug-06 13:30N 51°17' E 004°15'0 0.0
2018-Aug-06 13:00N 51°17' E 004°15'0 0.0
2018-Aug-06 12:30N 51°17' E 004°15'0 0.0
2018-Aug-06 12:00N 51°17' E 004°15'0 0.0
2018-Aug-06 11:30N 51°17' E 004°15'0 0.0
2018-Aug-06 11:00N 51°17' E 004°15'0 0.0
2018-Aug-06 10:30N 51°17' E 004°15'0 0.0
2018-Aug-06 10:00N 51°17' E 004°15'0 0.0
2018-Aug-06 09:30N 51°17' E 004°15'0 0.0
2018-Aug-06 09:00N 51°17' E 004°15'0 0.0
2018-Aug-06 08:30N 51°17' E 004°15'0 0.0
2018-Aug-06 08:00N 51°17' E 004°15'0 0.0
2018-Aug-06 07:30N 51°17' E 004°15'0 0.0
2018-Aug-06 07:00N 51°17' E 004°15'0 0.0
2018-Aug-06 06:30N 51°17' E 004°15'0 0.0
2018-Aug-06 06:00N 51°17' E 004°15'0 0.0
2018-Aug-06 05:30N 51°17' E 004°15'0 0.0
2018-Aug-06 05:00N 51°17' E 004°15'0 0.0
2018-Aug-06 04:30N 51°17' E 004°15'0 0.0
2018-Aug-06 04:00N 51°17' E 004°15'0 0.0
2018-Aug-06 03:30N 51°17' E 004°15'1 1.5
2018-Aug-06 03:00N 51°18' E 004°16'1 2.2
2018-Aug-06 02:30N 51°19' E 004°16'3 5.1
2018-Aug-06 02:00N 51°21' E 004°14'3 6.7
2018-Aug-06 01:30N 51°23' E 004°10'5 9.0
2018-Aug-06 01:00N 51°23' E 004°02'3 6.5
2018-Aug-06 00:30N 51°24' E 003°58'612.2
2018-Aug-06 00:00N 51°21' E 003°50'510.9
2018-Aug-05 23:30N 51°24' E 003°43'5 9.7
2018-Aug-05 23:00N 51°26' E 003°35'4 7.5
2018-Aug-05 22:30N 51°25' E 003°30'815.3
2018-Aug-05 22:00N 51°24' E 003°17'917.2
2018-Aug-05 21:30N 51°24' E 003°04'612.5
2018-Aug-05 21:00N 51°31' E 003°04'918.0
2018-Aug-05 20:30N 51°39' E 003°11'612.8
2018-Aug-05 20:00N 51°45' E 003°13'714.1
2018-Aug-05 19:30N 51°51' E 003°07'714.6
2018-Aug-05 19:00N 51°58' E 003°03'1313.3
2018-Aug-05 18:01N 52°11' E 003°00'714.2
2018-Aug-05 17:30N 52°17' E 003°07'714.2
2018-Aug-05 17:00N 52°23' E 003°13'714.2
2018-Aug-05 16:30N 52°29' E 003°20'714.5
2018-Aug-05 16:00N 52°35' E 003°26'715.0
2018-Aug-05 15:30N 52°41' E 003°34'1020.7
2018-Aug-05 15:00N 52°49' E 003°45'2323.0
2018-Aug-05 14:00N 53°05' E 004°12'1122.3
2018-Aug-05 13:30N 53°12' E 004°25'1122.0
2018-Aug-05 13:00N 53°22' E 004°34'1220.2
2018-Aug-05 12:26N 53°30' E 004°48'920.4
2018-Aug-05 11:59N 53°34' E 005°02'1020.5
2018-Aug-05 11:29N 53°38' E 005°18'5721.5
2018-Aug-05 08:49N 53°54' E 006°51'721.8
2018-Aug-05 08:30N 53°55' E 007°03'1121.6
2018-Aug-05 08:00N 53°58' E 007°21'1020.0
2018-Aug-05 07:30N 53°59' E 007°37'815.1
2018-Aug-05 07:00N 53°53' E 007°45'917.5
2018-Aug-05 06:30N 53°51' E 007°60'816.6
2018-Aug-05 06:00N 53°46' E 008°11'816.2
2018-Aug-05 05:30N 53°41' E 008°21'713.5
2018-Aug-05 05:00N 53°37' E 008°30'1 1.3
2018-Aug-05 04:30N 53°36' E 008°31'0 0.0
2018-Aug-05 04:00N 53°36' E 008°31'0 0.0
2018-Aug-05 03:30N 53°36' E 008°31'0 0.0
2018-Aug-05 03:00N 53°36' E 008°31'0 0.0
2018-Aug-05 02:30N 53°36' E 008°31'0 0.0
2018-Aug-05 02:00N 53°36' E 008°31'0 0.0
2018-Aug-05 01:30N 53°36' E 008°31'0 0.0
2018-Aug-05 01:00N 53°36' E 008°31'0 0.0
2018-Aug-05 00:30N 53°36' E 008°31'0 0.0
2018-Aug-05 00:01N 53°36' E 008°31'0 0.0
2018-Aug-04 23:30N 53°36' E 008°31'0 0.0
2018-Aug-04 22:59N 53°36' E 008°31'0 0.0
2018-Aug-04 22:30N 53°36' E 008°31'0 0.0
2018-Aug-04 22:00N 53°36' E 008°31'0 0.0
2018-Aug-04 21:30N 53°36' E 008°31'0 0.0
2018-Aug-04 21:00N 53°36' E 008°31'0 0.0
2018-Aug-04 20:30N 53°36' E 008°31'0 0.0
2018-Aug-04 20:01N 53°36' E 008°31'0 0.0
2018-Aug-04 19:30N 53°36' E 008°31'0 0.0
2018-Aug-04 19:00N 53°36' E 008°31'0 0.0
2018-Aug-04 18:30N 53°36' E 008°31'0 0.0
2018-Aug-04 18:00N 53°36' E 008°31'0 0.0
2018-Aug-04 17:30N 53°36' E 008°31'0 0.0
2018-Aug-04 17:00N 53°36' E 008°31'0 0.0
2018-Aug-04 16:30N 53°36' E 008°31'0 0.0
2018-Aug-04 16:00N 53°36' E 008°31'0 0.0
2018-Aug-04 15:30N 53°36' E 008°31'0 0.0
2018-Aug-04 15:00N 53°36' E 008°31'0 0.0
2018-Aug-04 14:31N 53°36' E 008°31'0 0.0
2018-Aug-04 14:00N 53°36' E 008°31'0 0.0
2018-Aug-04 13:29N 53°36' E 008°31'0 0.0
2018-Aug-04 13:00N 53°36' E 008°31'0 0.0
2018-Aug-04 12:30N 53°36' E 008°31'0 0.0
2018-Aug-04 12:00N 53°36' E 008°31'0 0.0
2018-Aug-04 11:29N 53°36' E 008°31'0 0.0
2018-Aug-04 11:00N 53°36' E 008°31'0 0.0
2018-Aug-04 10:30N 53°36' E 008°31'0 0.0
2018-Aug-04 10:00N 53°36' E 008°31'0 0.0
2018-Aug-04 09:30N 53°36' E 008°31'0 0.0
2018-Aug-04 09:01N 53°36' E 008°31'0 0.0
2018-Aug-04 08:30N 53°36' E 008°31'0 0.0
2018-Aug-04 08:00N 53°36' E 008°31'0 0.0
2018-Aug-04 07:30N 53°36' E 008°31'0 0.0
2018-Aug-04 07:00N 53°36' E 008°31'0 0.0
2018-Aug-04 06:30N 53°36' E 008°31'  
Track history (hours):
 
Tides and Currents Weather Stations Pressure Air Temp Water Temp Dewpoint Dewpoint Depression Visibility Wind Speed Wind Dir Waves Ship Positions

Madison Maersk

Last reported at 2018-Aug-14 06:30 UTC. Time now 2018-Aug-14 06:58 UTC.
Position N 36°27' W 008°49'.

Length 399 m; draft 14.3 m.

Type: Ship (hazmat cat A). MMSI: 219018864.

Date/timePositionNaut miles runAvg speedWind from/ knotsBaromVisibWave heightAir tempDewpointWater temp
2018-Aug-14 06:30N 36°27' W 008°49'510.4
2018-Aug-14 05:59N 36°28' W 008°55'510.3
2018-Aug-14 05:30N 36°29' W 009°01'510.4
2018-Aug-14 05:00N 36°30' W 009°07'610.3
2018-Aug-14 04:24N 36°32' W 009°15'510.2
2018-Aug-14 03:56N 36°34' W 009°20'510.4
2018-Aug-14 03:29N 36°38' W 009°23'510.3
2018-Aug-14 02:58N 36°42' W 009°27'510.6
2018-Aug-14 02:30N 36°46' W 009°31'611.1
2018-Aug-14 02:00N 36°51' W 009°34'611.1
2018-Aug-14 01:29N 36°57' W 009°36'510.9
2018-Aug-14 01:00N 37°02' W 009°37'810.9
2018-Aug-14 00:16N 37°09' W 009°40'411.1
2018-Aug-13 23:57N 37°13' W 009°41'911.0
2018-Aug-13 23:05N 37°22' W 009°43'311.4
2018-Aug-13 22:49N 37°25' W 009°44'811.0
2018-Aug-13 22:03N 37°33' W 009°46'111.0
2018-Aug-13 22:00N 37°34' W 009°46'611.0
2018-Aug-13 21:29N 37°40' W 009°48'510.9
2018-Aug-13 21:00N 37°45' W 009°50'510.8
2018-Aug-13 20:30N 37°50' W 009°51'510.7
2018-Aug-13 20:00N 37°55' W 009°53'510.9
2018-Aug-13 19:30N 38°00' W 009°54'510.9
2018-Aug-13 19:00N 38°06' W 009°55'510.9
2018-Aug-13 18:30N 38°11' W 009°57'713.7
2018-Aug-13 18:01N 38°18' W 009°59'815.6
2018-Aug-13 17:30N 38°25' W 010°01'815.6
2018-Aug-13 17:00N 38°33' W 010°03'815.8
2018-Aug-13 16:31N 38°41' W 010°05'815.3
2018-Aug-13 15:58N 38°49' W 010°07'715.2
2018-Aug-13 15:31N 38°56' W 010°07'714.8
2018-Aug-13 15:00N 39°03' W 010°07'714.2
2018-Aug-13 14:30N 39°10' W 010°07'714.3
2018-Aug-13 14:01N 39°17' W 010°07'714.9
2018-Aug-13 13:30N 39°25' W 010°07'1414.8
2018-Aug-13 12:34N 39°39' W 010°07'114.6
2018-Aug-13 12:30N 39°40' W 010°07'56214.6
2018-Aug-11 22:05N 48°33' W 006°02'616.2
2018-Aug-11 21:43N 48°38' W 005°58'516.1
2018-Aug-11 21:26N 48°42' W 005°55'716.0
2018-Aug-11 21:00N 48°48' W 005°49'1315.2
2018-Aug-11 20:06N 48°58' W 005°35'214.7
2018-Aug-11 19:57N 48°59' W 005°32'614.6
2018-Aug-11 19:30N 49°03' W 005°24'714.4
2018-Aug-11 19:00N 49°07' W 005°15'913.6
2018-Aug-11 18:22N 49°12' W 005°04'712.6
2018-Aug-11 17:47N 49°16' W 004°54'411.8
2018-Aug-11 17:29N 49°17' W 004°49'511.4
2018-Aug-11 17:00N 49°20' W 004°42'611.1
2018-Aug-11 16:26N 49°23' W 004°34'511.3
2018-Aug-11 16:00N 49°25' W 004°27'1011.7
2018-Aug-11 15:11N 49°30' W 004°14'212.2
2018-Aug-11 15:00N 49°31' W 004°11'1413.5
2018-Aug-11 13:57N 49°39' W 003°53'815.4
2018-Aug-11 13:26N 49°42' W 003°42'716.3
2018-Aug-11 13:00N 49°45' W 003°32'816.7
2018-Aug-11 12:30N 49°49' W 003°21'816.7
2018-Aug-11 12:01N 49°53' W 003°10'816.2
2018-Aug-11 11:31N 49°57' W 002°58'815.8
2018-Aug-11 11:00N 49°60' W 002°47'815.5
2018-Aug-11 10:31N 50°01' W 002°35'714.8
2018-Aug-11 10:00N 50°03' W 002°24'4711.8
2018-Aug-11 05:59N 49°53' W 001°12'612.5
2018-Aug-11 05:31N 49°50' W 001°04'713.9
2018-Aug-11 05:01N 49°46' W 000°55'815.2
2018-Aug-11 04:31N 49°42' W 000°45'815.9
2018-Aug-11 04:01N 49°39' W 000°34'816.1
2018-Aug-11 03:31N 49°35' W 000°23'815.8
2018-Aug-11 03:00N 49°33' W 000°11'3 6.9
2018-Aug-11 02:30N 49°32' W 000°06'4 8.5
2018-Aug-11 02:00N 49°30' W 000°00'611.7
2018-Aug-11 01:30N 49°28' E 000°08'1 1.5
2018-Aug-11 01:00N 49°28' E 000°09'0 0.0
2018-Aug-11 00:30N 49°28' E 000°09'0 0.0
2018-Aug-11 00:00N 49°28' E 000°09'0 0.0
2018-Aug-10 23:30N 49°28' E 000°09'0 0.0
2018-Aug-10 23:00N 49°28' E 000°09'0 0.0
2018-Aug-10 22:30N 49°28' E 000°09'0 0.0
2018-Aug-10 22:00N 49°28' E 000°09'0 0.0
2018-Aug-10 21:30N 49°28' E 000°09'0 0.0
2018-Aug-10 21:00N 49°28' E 000°09'0 0.0
2018-Aug-10 20:30N 49°28' E 000°09'0 0.0
2018-Aug-10 20:00N 49°28' E 000°09'0 0.0
2018-Aug-10 19:30N 49°28' E 000°09'0 0.0
2018-Aug-10 19:00N 49°28' E 000°09'0 0.0
2018-Aug-10 18:30N 49°28' E 000°09'0 0.0
2018-Aug-10 18:00N 49°28' E 000°09'0 0.0
2018-Aug-10 17:30N 49°28' E 000°09'0 0.0
2018-Aug-10 17:00N 49°28' E 000°09'0 0.0
2018-Aug-10 16:30N 49°28' E 000°09'0 0.0
2018-Aug-10 16:00N 49°28' E 000°09'0 0.0
2018-Aug-10 15:30N 49°28' E 000°09'0 0.0
2018-Aug-10 15:00N 49°28' E 000°09'0 0.0
2018-Aug-10 14:30N 49°28' E 000°09'0 0.0
2018-Aug-10 14:00N 49°28' E 000°09'0 0.0
2018-Aug-10 13:30N 49°28' E 000°09'0 0.0
2018-Aug-10 13:00N 49°28' E 000°09'0 0.0
2018-Aug-10 12:31N 49°28' E 000°09'0 0.0
2018-Aug-10 12:00N 49°28' E 000°09'0 0.0
2018-Aug-10 11:30N 49°28' E 000°09'0 0.0
2018-Aug-10 11:00N 49°28' E 000°09'0 0.0
2018-Aug-10 10:30N 49°28' E 000°09'0 0.0
2018-Aug-10 10:00N 49°28' E 000°09'0 0.0
2018-Aug-10 09:30N 49°28' E 000°09'0 0.0
2018-Aug-10 09:00N 49°28' E 000°09'0 0.0
2018-Aug-10 08:30N 49°28' E 000°09'0 0.0
2018-Aug-10 08:00N 49°28' E 000°09'0 0.0
2018-Aug-10 07:30N 49°28' E 000°09'0 0.0
2018-Aug-10 07:00N 49°28' E 000°09'0 0.0
2018-Aug-10 06:30N 49°28' E 000°09'0 0.0
2018-Aug-10 06:00N 49°28' E 000°09'0 0.0
2018-Aug-10 05:30N 49°28' E 000°09'0 0.0
2018-Aug-10 05:00N 49°28' E 000°09'0 0.0
2018-Aug-10 04:30N 49°28' E 000°09'0 0.0
2018-Aug-10 04:00N 49°28' E 000°09'0 0.0
2018-Aug-10 03:30N 49°28' E 000°09'0 0.0
2018-Aug-10 03:00N 49°28' E 000°09'0 0.0
2018-Aug-10 02:30N 49°28' E 000°09'0 0.0
2018-Aug-10 02:00N 49°28' E 000°09'0 0.0
2018-Aug-10 01:30N 49°28' E 000°09'0 0.0
2018-Aug-10 01:00N 49°28' E 000°09'0 0.0
2018-Aug-10 00:30N 49°28' E 000°09'0 0.0
2018-Aug-10 00:00N 49°28' E 000°09'0 0.0
2018-Aug-09 23:30N 49°28' E 000°09'0 0.0
2018-Aug-09 23:00N 49°28' E 000°09'0 0.0
2018-Aug-09 22:30N 49°28' E 000°09'0 0.0
2018-Aug-09 22:00N 49°28' E 000°09'0 0.0
2018-Aug-09 21:30N 49°28' E 000°09'0 0.0
2018-Aug-09 21:00N 49°28' E 000°09'0 0.0
2018-Aug-09 20:30N 49°28' E 000°09'0 0.0
2018-Aug-09 20:00N 49°28' E 000°09'0 0.1
2018-Aug-09 19:30N 49°28' E 000°09'1 1.1
2018-Aug-09 19:00N 49°28' E 000°08'4 8.1
2018-Aug-09 18:30N 49°30' E 000°03'815.5
2018-Aug-09 18:01N 49°32' W 000°09'4 8.4
2018-Aug-09 17:30N 49°33' W 000°15'5 9.6
2018-Aug-09 17:01N 49°35' W 000°21'815.4
2018-Aug-09 16:30N 49°42' W 000°27'1020.2
2018-Aug-09 16:01N 49°52' W 000°28'1020.0
2018-Aug-09 15:30N 50°02' W 000°29'1019.9
2018-Aug-09 15:01N 50°12' W 000°28'1418.1
2018-Aug-09 14:15N 50°25' W 000°21'620.7
2018-Aug-09 13:59N 50°26' W 000°12'1120.5
2018-Aug-09 13:28N 50°29' E 000°04'920.5
2018-Aug-09 13:01N 50°32' E 000°18'1020.3
2018-Aug-09 12:31N 50°35' E 000°33'1020.2
2018-Aug-09 12:01N 50°41' E 000°46'1019.9
2018-Aug-09 11:30N 50°48' E 000°58'1019.1
2018-Aug-09 11:00N 50°54' E 001°08'918.2
2018-Aug-09 10:30N 50°60' E 001°20'917.5
2018-Aug-09 10:00N 51°06' E 001°30'816.7
2018-Aug-09 09:31N 51°12' E 001°38'918.5
2018-Aug-09 09:01N 51°21' E 001°43'1019.1
2018-Aug-09 08:30N 51°31' E 001°45'1021.0
2018-Aug-09 08:01N 51°41' E 001°45'918.6
2018-Aug-09 07:30N 51°50' E 001°40'5 9.9
2018-Aug-09 07:00N 51°53' E 001°34'5 9.2
2018-Aug-09 06:30N 51°56' E 001°29'510.2
2018-Aug-09 06:00N 51°56' E 001°21'2 2.9
2018-Aug-09 05:28N 51°57' E 001°19'0 0.1
2018-Aug-09 05:00N 51°57' E 001°19'0 0.0
2018-Aug-09 04:30N 51°57' E 001°19'0 0.0
2018-Aug-09 04:00N 51°57' E 001°19'0 0.0
2018-Aug-09 03:29N 51°57' E 001°19'0 0.0
2018-Aug-09 02:59N 51°57' E 001°19'0 0.0
2018-Aug-09 02:29N 51°57' E 001°19'0 0.0
2018-Aug-09 01:59N 51°57' E 001°19'0 0.0
2018-Aug-09 01:31N 51°57' E 001°19'0 0.0
2018-Aug-09 01:01N 51°57' E 001°19'0 0.0
2018-Aug-09 00:31N 51°57' E 001°19'0 0.0
2018-Aug-09 00:01N 51°57' E 001°19'0 0.0
2018-Aug-08 23:31N 51°57' E 001°19'0 0.0
2018-Aug-08 23:01N 51°57' E 001°19'0 0.0
2018-Aug-08 22:31N 51°57' E 001°19'0 0.0
2018-Aug-08 22:01N 51°57' E 001°19'0 0.0
2018-Aug-08 21:31N 51°57' E 001°19'0 0.0
2018-Aug-08 21:01N 51°57' E 001°19'0 0.0
2018-Aug-08 20:31N 51°57' E 001°19'0 0.0
2018-Aug-08 20:01N 51°57' E 001°19'0 0.0
2018-Aug-08 19:31N 51°57' E 001°19'0 0.0
2018-Aug-08 19:01N 51°57' E 001°19'0 0.0
2018-Aug-08 18:31N 51°57' E 001°19'0 0.0
2018-Aug-08 18:01N 51°57' E 001°19'0 0.0
2018-Aug-08 17:30N 51°57' E 001°19'0 0.0
2018-Aug-08 17:00N 51°57' E 001°19'0 0.0
2018-Aug-08 16:30N 51°57' E 001°19'0 0.0
2018-Aug-08 16:00N 51°57' E 001°19'0 0.0
2018-Aug-08 15:30N 51°57' E 001°19'0 0.0
2018-Aug-08 15:00N 51°57' E 001°19'0 0.0
2018-Aug-08 14:30N 51°57' E 001°19'0 0.0
2018-Aug-08 14:00N 51°57' E 001°19'0 0.0
2018-Aug-08 13:30N 51°57' E 001°19'0 0.0
2018-Aug-08 13:00N 51°57' E 001°19'0 0.0
2018-Aug-08 12:30N 51°57' E 001°19'0 0.0
2018-Aug-08 12:00N 51°57' E 001°19'0 0.0
2018-Aug-08 11:30N 51°57' E 001°19'0 0.0
2018-Aug-08 11:00N 51°57' E 001°19'0 0.0
2018-Aug-08 10:30N 51°57' E 001°19'0 0.0
2018-Aug-08 10:00N 51°57' E 001°19'0 0.0
2018-Aug-08 09:30N 51°57' E 001°19'0 0.0
2018-Aug-08 09:00N 51°57' E 001°19'0 0.0
2018-Aug-08 08:30N 51°57' E 001°19'0 0.0
2018-Aug-08 08:00N 51°57' E 001°19'0 0.0
2018-Aug-08 07:30N 51°57' E 001°19'0 0.0
2018-Aug-08 07:00N 51°57' E 001°19'0 0.0
2018-Aug-08 06:30N 51°57' E 001°19'0 0.0
2018-Aug-08 06:00N 51°57' E 001°19'0 0.0
2018-Aug-08 05:30N 51°57' E 001°19'0 0.0
2018-Aug-08 05:01N 51°57' E 001°19'0 0.0
2018-Aug-08 04:30N 51°57' E 001°19'0 0.0
2018-Aug-08 04:00N 51°57' E 001°19'0 0.0
2018-Aug-08 03:30N 51°57' E 001°19'0 0.0
2018-Aug-08 03:00N 51°57' E 001°19'0 0.0
2018-Aug-08 02:30N 51°57' E 001°19'0 0.0
2018-Aug-08 02:00N 51°57' E 001°19'0 0.0
2018-Aug-08 01:30N 51°57' E 001°19'0 0.0
2018-Aug-08 01:00N 51°57' E 001°19'0 0.0
2018-Aug-08 00:30N 51°57' E 001°19'0 0.1
2018-Aug-08 00:00N 51°57' E 001°19'0 0.3
2018-Aug-07 23:30N 51°57' E 001°19'2 4.7
2018-Aug-07 23:01N 51°56' E 001°22'612.9
2018-Aug-07 22:30N 51°56' E 001°33'510.9
2018-Aug-07 22:00N 51°51' E 001°37'5 9.8
2018-Aug-07 21:30N 51°51' E 001°45'816.3
2018-Aug-07 21:00N 51°43' E 001°49'1019.7
2018-Aug-07 20:30N 51°33' E 001°51'917.2
2018-Aug-07 20:00N 51°26' E 001°59'917.3
2018-Aug-07 19:30N 51°22' E 002°11'816.4
2018-Aug-07 19:00N 51°22' E 002°24'918.1
2018-Aug-07 18:30N 51°23' E 002°38'714.3
2018-Aug-07 18:01N 51°25' E 002°49'816.5
2018-Aug-07 17:31N 51°25' E 003°02'815.6
2018-Aug-07 17:01N 51°25' E 003°15'815.2
2018-Aug-07 16:30N 51°25' E 003°27'510.5
2018-Aug-07 16:00N 51°26' E 003°35'5 9.6
2018-Aug-07 15:30N 51°24' E 003°43'613.0
2018-Aug-07 15:01N 51°21' E 003°51'713.4
2018-Aug-07 14:30N 51°26' E 003°58'612.0
2018-Aug-07 14:00N 51°22' E 004°06'510.8
2018-Aug-07 13:30N 51°21' E 004°14'4 7.3
2018-Aug-07 13:01N 51°18' E 004°16'0 0.8
2018-Aug-07 12:28N 51°17' E 004°15'0 0.0
2018-Aug-07 11:52N 51°17' E 004°15'0 0.0
2018-Aug-07 11:28N 51°17' E 004°15'0 0.0
2018-Aug-07 10:58N 51°17' E 004°15'0 0.0
2018-Aug-07 10:31N 51°17' E 004°15'0 0.0
2018-Aug-07 10:01N 51°17' E 004°15'0 0.0
2018-Aug-07 09:31N 51°17' E 004°15'0 0.0
2018-Aug-07 09:01N 51°17' E 004°15'0 0.0
2018-Aug-07 08:31N 51°17' E 004°15'0 0.0
2018-Aug-07 08:00N 51°17' E 004°15'0 0.0
2018-Aug-07 07:31N 51°17' E 004°15'0 0.0
2018-Aug-07 07:01N 51°17' E 004°15'0 0.0
2018-Aug-07 06:31N 51°17' E 004°15'0 0.0
2018-Aug-07 06:01N 51°17' E 004°15'0 0.0
2018-Aug-07 05:30N 51°17' E 004°15'0 0.0
2018-Aug-07 05:01N 51°17' E 004°15'0 0.0
2018-Aug-07 04:31N 51°17' E 004°15'0 0.0
2018-Aug-07 04:00N 51°17' E 004°15'0 0.0
2018-Aug-07 03:31N 51°17' E 004°15'0 0.0
2018-Aug-07 03:01N 51°17' E 004°15'0 0.0
2018-Aug-07 02:31N 51°17' E 004°15'0 0.0
2018-Aug-07 02:01N 51°17' E 004°15'0 0.0
2018-Aug-07 01:30N 51°17' E 004°15'0 0.0
2018-Aug-07 01:00N 51°17' E 004°15'0 0.0
2018-Aug-07 00:31N 51°17' E 004°15'0 0.0
2018-Aug-07 00:00N 51°17' E 004°15'0 0.0
2018-Aug-06 23:30N 51°17' E 004°15'0 0.0
2018-Aug-06 23:01N 51°17' E 004°15'0 0.0
2018-Aug-06 22:31N 51°17' E 004°15'0 0.0
2018-Aug-06 22:00N 51°17' E 004°15'0 0.0
2018-Aug-06 21:31N 51°17' E 004°15'0 0.0
2018-Aug-06 21:01N 51°17' E 004°15'0 0.0
2018-Aug-06 20:31N 51°17' E 004°15'0 0.0
2018-Aug-06 20:01N 51°17' E 004°15'0 0.0
2018-Aug-06 19:31N 51°17' E 004°15'0 0.0
2018-Aug-06 19:01N 51°17' E 004°15'0 0.0
2018-Aug-06 18:31N 51°17' E 004°15'0 0.0
2018-Aug-06 18:01N 51°17' E 004°15'0 0.0
2018-Aug-06 17:31N 51°17' E 004°15'0 0.0
2018-Aug-06 17:01N 51°17' E 004°15'0 0.0
2018-Aug-06 16:30N 51°17' E 004°15'0 0.0
2018-Aug-06 16:00N 51°17' E 004°15'0 0.0
2018-Aug-06 15:30N 51°17' E 004°15'0 0.0
2018-Aug-06 15:00N 51°17' E 004°15'0 0.0
2018-Aug-06 14:30N 51°17' E 004°15'0 0.0
2018-Aug-06 14:00N 51°17' E 004°15'0 0.0
2018-Aug-06 13:30N 51°17' E 004°15'0 0.0
2018-Aug-06 13:00N 51°17' E 004°15'0 0.0
2018-Aug-06 12:30N 51°17' E 004°15'0 0.0
2018-Aug-06 12:00N 51°17' E 004°15'0 0.0
2018-Aug-06 11:30N 51°17' E 004°15'0 0.0
2018-Aug-06 11:00N 51°17' E 004°15'0 0.0
2018-Aug-06 10:30N 51°17' E 004°15'0 0.0
2018-Aug-06 10:00N 51°17' E 004°15'0 0.0
2018-Aug-06 09:30N 51°17' E 004°15'0 0.0
2018-Aug-06 09:00N 51°17' E 004°15'0 0.0
2018-Aug-06 08:30N 51°17' E 004°15'0 0.0
2018-Aug-06 08:00N 51°17' E 004°15'0 0.0
2018-Aug-06 07:30N 51°17' E 004°15'0 0.0
2018-Aug-06 07:00N 51°17' E 004°15'0 0.0
2018-Aug-06 06:30N 51°17' E 004°15'0 0.0
2018-Aug-06 06:00N 51°17' E 004°15'0 0.0
2018-Aug-06 05:30N 51°17' E 004°15'0 0.0
2018-Aug-06 05:00N 51°17' E 004°15'0 0.0
2018-Aug-06 04:30N 51°17' E 004°15'0 0.0
2018-Aug-06 04:00N 51°17' E 004°15'0 0.0
2018-Aug-06 03:30N 51°17' E 004°15'1 1.5
2018-Aug-06 03:00N 51°18' E 004°16'1 2.2
2018-Aug-06 02:30N 51°19' E 004°16'3 5.1
2018-Aug-06 02:00N 51°21' E 004°14'3 6.7
2018-Aug-06 01:30N 51°23' E 004°10'5 9.0
2018-Aug-06 01:00N 51°23' E 004°02'3 6.5
2018-Aug-06 00:30N 51°24' E 003°58'612.2
2018-Aug-06 00:00N 51°21' E 003°50'510.9
2018-Aug-05 23:30N 51°24' E 003°43'5 9.7
2018-Aug-05 23:00N 51°26' E 003°35'4 7.5
2018-Aug-05 22:30N 51°25' E 003°30'815.3
2018-Aug-05 22:00N 51°24' E 003°17'917.2
2018-Aug-05 21:30N 51°24' E 003°04'612.5
2018-Aug-05 21:00N 51°31' E 003°04'918.0
2018-Aug-05 20:30N 51°39' E 003°11'612.8
2018-Aug-05 20:00N 51°45' E 003°13'714.1
2018-Aug-05 19:30N 51°51' E 003°07'714.6
2018-Aug-05 19:00N 51°58' E 003°03'1313.3
2018-Aug-05 18:01N 52°11' E 003°00'714.2
2018-Aug-05 17:30N 52°17' E 003°07'714.2
2018-Aug-05 17:00N 52°23' E 003°13'714.2
2018-Aug-05 16:30N 52°29' E 003°20'714.5
2018-Aug-05 16:00N 52°35' E 003°26'715.0
2018-Aug-05 15:30N 52°41' E 003°34'1020.7
2018-Aug-05 15:00N 52°49' E 003°45'2323.0
2018-Aug-05 14:00N 53°05' E 004°12'1122.3
2018-Aug-05 13:30N 53°12' E 004°25'1122.0
2018-Aug-05 13:00N 53°22' E 004°34'1220.2
2018-Aug-05 12:26N 53°30' E 004°48'920.4
2018-Aug-05 11:59N 53°34' E 005°02'1020.5
2018-Aug-05 11:29N 53°38' E 005°18'5721.5
2018-Aug-05 08:49N 53°54' E 006°51'721.8
2018-Aug-05 08:30N 53°55' E 007°03'1121.6
2018-Aug-05 08:00N 53°58' E 007°21'1020.0
2018-Aug-05 07:30N 53°59' E 007°37'815.1
2018-Aug-05 07:00N 53°53' E 007°45'917.5
2018-Aug-05 06:30N 53°51' E 007°60'816.6
2018-Aug-05 06:00N 53°46' E 008°11'816.2
2018-Aug-05 05:30N 53°41' E 008°21'713.5
2018-Aug-05 05:00N 53°37' E 008°30'1 1.3
2018-Aug-05 04:30N 53°36' E 008°31'0 0.0
2018-Aug-05 04:00N 53°36' E 008°31'0 0.0
2018-Aug-05 03:30N 53°36' E 008°31'0 0.0
2018-Aug-05 03:00N 53°36' E 008°31'0 0.0
2018-Aug-05 02:30N 53°36' E 008°31'0 0.0
2018-Aug-05 02:00N 53°36' E 008°31'0 0.0
2018-Aug-05 01:30N 53°36' E 008°31'0 0.0
2018-Aug-05 01:00N 53°36' E 008°31'0 0.0
2018-Aug-05 00:30N 53°36' E 008°31'0 0.0
2018-Aug-05 00:01N 53°36' E 008°31'0 0.0
2018-Aug-04 23:30N 53°36' E 008°31'0 0.0
2018-Aug-04 22:59N 53°36' E 008°31'0 0.0
2018-Aug-04 22:30N 53°36' E 008°31'0 0.0
2018-Aug-04 22:00N 53°36' E 008°31'0 0.0
2018-Aug-04 21:30N 53°36' E 008°31'0 0.0
2018-Aug-04 21:00N 53°36' E 008°31'0 0.0
2018-Aug-04 20:30N 53°36' E 008°31'0 0.0
2018-Aug-04 20:01N 53°36' E 008°31'0 0.0
2018-Aug-04 19:30N 53°36' E 008°31'0 0.0
2018-Aug-04 19:00N 53°36' E 008°31'0 0.0
2018-Aug-04 18:30N 53°36' E 008°31'0 0.0
2018-Aug-04 18:00N 53°36' E 008°31'0 0.0
2018-Aug-04 17:30N 53°36' E 008°31'0 0.0
2018-Aug-04 17:00N 53°36' E 008°31'0 0.0
2018-Aug-04 16:30N 53°36' E 008°31'0 0.0
2018-Aug-04 16:00N 53°36' E 008°31'0 0.0
2018-Aug-04 15:30N 53°36' E 008°31'0 0.0
2018-Aug-04 15:00N 53°36' E 008°31'0 0.0
2018-Aug-04 14:31N 53°36' E 008°31'0 0.0
2018-Aug-04 14:00N 53°36' E 008°31'0 0.0
2018-Aug-04 13:29N 53°36' E 008°31'0 0.0
2018-Aug-04 13:00N 53°36' E 008°31'0 0.0
2018-Aug-04 12:30N 53°36' E 008°31'0 0.0
2018-Aug-04 12:00N 53°36' E 008°31'0 0.0
2018-Aug-04 11:29N 53°36' E 008°31'0 0.0
2018-Aug-04 11:00N 53°36' E 008°31'0 0.0
2018-Aug-04 10:30N 53°36' E 008°31'0 0.0
2018-Aug-04 10:00N 53°36' E 008°31'0 0.0
2018-Aug-04 09:30N 53°36' E 008°31'0 0.0
2018-Aug-04 09:01N 53°36' E 008°31'0 0.0
2018-Aug-04 08:30N 53°36' E 008°31'0 0.0
2018-Aug-04 08:00N 53°36' E 008°31'0 0.0
2018-Aug-04 07:30N 53°36' E 008°31'0 0.0
2018-Aug-04 07:00N 53°36' E 008°31'0 0.0
2018-Aug-04 06:30N 53°36' E 008°31'  

Dump ship's entire track history